Time;durP1;ratioP1;P1;durP2;ratioP2;P2;SDS_P1;SDS_P2;PMS_P1;PMS_P2;Temp;Humidity;BMP_temperature;BMP_pressure;BME280_temperature;BME280_humidity;BME280_pressure;Samples;Min_cycle;Max_cycle;Signal;HPM_P1;HPM_P2
2022/07/17 00:00:26;;;;;;;3.45;2.00;;;10.20;99.80;;;;;;5064856;28;20381;-62
2022/07/17 00:02:52;;;;;;;5.15;2.53;;;10.40;99.60;;;;;;5057989;28;22075;-62
2022/07/17 00:05:18;;;;;;;7.30;2.55;;;10.40;99.40;;;;;;5064390;28;20033;-61
2022/07/17 00:07:43;;;;;;;6.63;2.58;;;10.30;99.30;;;;;;5050607;28;20041;-62
2022/07/17 00:10:09;;;;;;;3.63;2.17;;;10.20;99.10;;;;;;5064525;28;20491;-61
2022/07/17 00:12:37;;;;;;;6.45;2.10;;;10.10;99.10;;;;;;5058763;28;20453;-62
2022/07/17 00:15:04;;;;;;;5.72;2.20;;;10.10;99.20;;;;;;5058021;28;20037;-62
2022/07/17 00:17:29;;;;;;;6.20;2.38;;;10.10;99.30;;;;;;5051686;28;20053;-62
2022/07/17 00:19:55;;;;;;;6.35;2.25;;;10.00;99.80;;;;;;5056155;28;20033;-62
2022/07/17 00:22:20;;;;;;;4.80;2.20;;;10.10;99.90;;;;;;5050112;28;20041;-62
2022/07/17 00:24:46;;;;;;;5.13;2.38;;;10.00;99.90;;;;;;5048918;28;20056;-62
2022/07/17 00:27:11;;;;;;;4.28;2.00;;;10.00;99.90;;;;;;5064059;28;20496;-62
2022/07/17 00:29:37;;;;;;;8.30;2.60;;;10.00;99.90;;;;;;5055041;28;20119;-62
2022/07/17 00:32:03;;;;;;;5.50;2.47;;;9.90;99.90;;;;;;5053527;28;20037;-62
2022/07/17 00:34:28;;;;;;;3.95;2.22;;;9.90;99.90;;;;;;5055475;28;20033;-61
2022/07/17 00:36:54;;;;;;;5.45;2.13;;;9.90;99.90;;;;;;5054830;28;20120;-62
2022/07/17 00:39:20;;;;;;;7.28;2.08;;;9.90;99.90;;;;;;5063717;28;20043;-62
2022/07/17 00:41:45;;;;;;;4.75;1.52;;;9.90;99.90;;;;;;5070975;28;20039;-62
2022/07/17 00:44:11;;;;;;;4.57;1.90;;;9.90;99.90;;;;;;5061015;28;20064;-62
2022/07/17 00:46:38;;;;;;;6.43;2.05;;;9.80;99.90;;;;;;5056722;28;20074;-62
2022/07/17 00:49:04;;;;;;;5.32;2.10;;;9.90;99.90;;;;;;5068627;28;20037;-62
2022/07/17 00:51:30;;;;;;;5.28;2.17;;;9.80;99.90;;;;;;5055087;28;20037;-62
2022/07/17 00:53:58;;;;;;;3.45;2.03;;;9.80;99.90;;;;;;5068242;28;20051;-62
2022/07/17 00:56:24;;;;;;;7.47;2.10;;;9.80;99.90;;;;;;5062464;28;20061;-62
2022/07/17 00:58:50;;;;;;;5.40;1.75;;;9.80;99.90;;;;;;5054100;28;20036;-61
2022/07/17 01:01:16;;;;;;;4.53;2.35;;;9.80;99.90;;;;;;5055461;28;20251;-62
2022/07/17 01:03:43;;;;;;;7.38;2.30;;;9.80;99.90;;;;;;5055540;28;20507;-61
2022/07/17 01:06:09;;;;;;;7.35;2.10;;;9.80;99.90;;;;;;5050320;28;20060;-62
2022/07/17 01:08:35;;;;;;;5.75;2.13;;;9.70;99.90;;;;;;5050474;28;20115;-61
2022/07/17 01:11:02;;;;;;;5.78;2.30;;;9.80;99.90;;;;;;5061913;28;20038;-61
2022/07/17 01:13:27;;;;;;;6.82;2.42;;;10.00;99.90;;;;;;5060438;28;20479;-61
2022/07/17 01:15:54;;;;;;;2.50;1.90;;;10.10;99.90;;;;;;5052934;28;20045;-62
2022/07/17 01:18:22;;;;;;;2.95;1.92;;;10.00;99.90;;;;;;5065400;28;20036;-61
2022/07/17 01:20:48;;;;;;;7.43;2.22;;;9.90;99.90;;;;;;5052400;28;20041;-62
2022/07/17 01:23:16;;;;;;;4.07;2.10;;;9.80;99.90;;;;;;5070634;28;20044;-62
2022/07/17 01:25:42;;;;;;;3.88;2.00;;;9.80;99.90;;;;;;5053405;28;20033;-62
2022/07/17 01:28:08;;;;;;;3.83;2.10;;;9.70;99.90;;;;;;5060783;28;20047;-62
2022/07/17 01:30:34;;;;;;;8.32;2.15;;;9.70;99.90;;;;;;5064647;28;20048;-62
2022/07/17 01:33:00;;;;;;;5.20;2.38;;;9.70;99.90;;;;;;5051934;28;20036;-61
2022/07/17 01:35:26;;;;;;;6.13;2.20;;;9.60;99.90;;;;;;5053388;28;20159;-62
2022/07/17 01:37:52;;;;;;;5.63;2.08;;;9.70;99.90;;;;;;5055650;28;20607;-62
2022/07/17 01:40:18;;;;;;;4.35;1.90;;;9.70;99.90;;;;;;5049353;28;20036;-62
2022/07/17 01:42:47;;;;;;;4.53;2.10;;;9.60;99.90;;;;;;5050983;28;20106;-61
2022/07/17 01:45:14;;;;;;;5.07;2.08;;;9.60;99.90;;;;;;5061833;28;20033;-62
2022/07/17 01:47:40;;;;;;;3.92;2.10;;;9.60;99.90;;;;;;5058209;28;20433;-61
2022/07/17 01:50:07;;;;;;;4.53;2.20;;;9.60;99.90;;;;;;5060718;28;20025;-62
2022/07/17 01:52:36;;;;;;;3.28;2.05;;;9.60;99.90;;;;;;5058150;28;20037;-62
2022/07/17 01:55:01;;;;;;;4.07;1.92;;;9.60;99.90;;;;;;5053840;28;20049;-62
2022/07/17 01:57:27;;;;;;;3.55;2.22;;;9.70;99.90;;;;;;5052015;28;20095;-62
2022/07/17 01:59:52;;;;;;;6.60;2.08;;;9.60;99.90;;;;;;5055925;28;20392;-61
2022/07/17 02:02:18;;;;;;;4.65;2.40;;;9.70;99.90;;;;;;5050329;28;20136;-62
2022/07/17 02:04:45;;;;;;;5.20;2.05;;;9.60;99.90;;;;;;5048441;28;20029;-62
2022/07/17 02:07:11;;;;;;;5.25;2.00;;;9.60;99.90;;;;;;5048001;28;20048;-62
2022/07/17 02:09:37;;;;;;;4.53;2.10;;;9.60;99.90;;;;;;5047688;28;20535;-62
2022/07/17 02:12:03;;;;;;;4.35;2.00;;;9.50;99.90;;;;;;5063735;28;20484;-62
2022/07/17 02:14:30;;;;;;;4.95;2.42;;;9.50;99.90;;;;;;5060452;28;20119;-61
2022/07/17 02:16:56;;;;;;;5.70;2.33;;;9.60;99.90;;;;;;5059936;28;20060;-62
2022/07/17 02:19:21;;;;;;;6.57;2.30;;;9.70;99.90;;;;;;5056401;28;20037;-62
2022/07/17 02:21:47;;;;;;;4.22;2.42;;;9.70;99.90;;;;;;5070825;28;20029;-62
2022/07/17 02:24:13;;;;;;;5.72;2.60;;;9.80;99.90;;;;;;5062268;28;20072;-62
2022/07/17 02:26:39;;;;;;;4.15;2.30;;;9.70;99.90;;;;;;5057269;28;20033;-62
2022/07/17 02:29:04;;;;;;;5.22;2.35;;;9.80;99.90;;;;;;5056164;28;20029;-62
2022/07/17 02:31:30;;;;;;;3.20;2.10;;;9.90;99.90;;;;;;5054508;28;20127;-62
2022/07/17 02:33:55;;;;;;;4.07;2.40;;;9.90;99.90;;;;;;5071180;28;20155;-62
2022/07/17 02:36:21;;;;;;;3.88;2.25;;;9.90;99.90;;;;;;5056532;28;20062;-62
2022/07/17 02:38:47;;;;;;;5.35;2.30;;;10.00;99.90;;;;;;5068754;28;20048;-62
2022/07/17 02:41:12;;;;;;;7.43;2.38;;;10.00;99.90;;;;;;5052250;28;20086;-61
2022/07/17 02:43:38;;;;;;;5.40;2.60;;;9.90;99.90;;;;;;5070141;28;20094;-62
2022/07/17 02:46:03;;;;;;;5.28;2.47;;;10.00;99.90;;;;;;5052538;28;20037;-62
2022/07/17 02:48:29;;;;;;;6.00;2.88;;;9.90;99.90;;;;;;5054642;28;20033;-62
2022/07/17 02:50:55;;;;;;;4.97;2.75;;;9.80;99.90;;;;;;5065948;28;20055;-62
2022/07/17 02:53:20;;;;;;;5.18;2.67;;;9.80;99.90;;;;;;5053760;28;20097;-62
2022/07/17 02:55:46;;;;;;;4.38;2.70;;;9.60;99.90;;;;;;5052913;28;20052;-62
2022/07/17 02:58:11;;;;;;;3.97;2.55;;;9.60;99.90;;;;;;5063386;28;20044;-62
2022/07/17 03:00:37;;;;;;;6.25;2.83;;;9.60;99.90;;;;;;5059233;28;20028;-61
2022/07/17 03:03:03;;;;;;;5.10;3.05;;;9.50;99.90;;;;;;5070405;28;20114;-62
2022/07/17 03:05:29;;;;;;;7.80;2.97;;;9.40;99.90;;;;;;5067747;28;20052;-62
2022/07/17 03:07:54;;;;;;;4.70;3.40;;;9.40;99.90;;;;;;5060410;28;20060;-62
2022/07/17 03:10:20;;;;;;;8.13;2.90;;;9.40;99.90;;;;;;5062949;28;20036;-62
2022/07/17 03:12:45;;;;;;;7.25;3.45;;;9.40;99.90;;;;;;5068399;28;20029;-62
2022/07/17 03:15:11;;;;;;;9.20;3.10;;;9.40;99.90;;;;;;5056166;28;20048;-62
2022/07/17 03:17:40;;;;;;;3.63;2.40;;;9.50;99.90;;;;;;5059552;28;20547;-62
2022/07/17 03:20:07;;;;;;;3.88;2.63;;;9.40;99.90;;;;;;5053578;28;20099;-62
2022/07/17 03:22:33;;;;;;;5.65;2.20;;;9.40;99.90;;;;;;5064600;28;20036;-62
2022/07/17 03:24:58;;;;;;;8.43;2.80;;;9.40;99.90;;;;;;5053227;28;20672;-62
2022/07/17 03:27:24;;;;;;;5.50;2.35;;;9.30;99.90;;;;;;5066332;28;20048;-62
2022/07/17 03:29:49;;;;;;;4.55;2.50;;;9.20;99.90;;;;;;5059242;28;20445;-62
2022/07/17 03:32:15;;;;;;;7.03;2.60;;;9.20;99.90;;;;;;5057108;28;20090;-62
2022/07/17 03:34:41;;;;;;;5.70;2.70;;;9.10;99.90;;;;;;5051418;28;20040;-62
2022/07/17 03:37:07;;;;;;;6.80;2.97;;;9.20;99.90;;;;;;5056020;28;20032;-62
2022/07/17 03:39:32;;;;;;;5.15;2.60;;;9.20;99.90;;;;;;5059008;28;20041;-62
2022/07/17 03:41:58;;;;;;;5.18;2.90;;;9.20;99.90;;;;;;5067937;28;20036;-62
2022/07/17 03:44:23;;;;;;;6.60;2.22;;;9.20;99.90;;;;;;5059989;28;20131;-62
2022/07/17 03:46:49;;;;;;;3.42;2.55;;;9.10;99.90;;;;;;5068827;28;20037;-62
2022/07/17 03:49:15;;;;;;;5.10;2.65;;;9.10;99.90;;;;;;5055527;28;20477;-61
2022/07/17 03:51:41;;;;;;;5.25;2.67;;;9.00;99.90;;;;;;5066945;28;20040;-62
2022/07/17 03:54:07;;;;;;;5.28;2.35;;;9.00;99.90;;;;;;5060293;28;20047;-62
2022/07/17 03:56:32;;;;;;;4.97;2.35;;;9.00;99.90;;;;;;5056609;28;20086;-61
2022/07/17 03:58:58;;;;;;;4.90;3.10;;;8.90;99.90;;;;;;5053255;28;20071;-62
2022/07/17 04:01:24;;;;;;;7.22;2.70;;;8.90;99.90;;;;;;5052956;28;20108;-62
2022/07/17 04:03:49;;;;;;;4.32;3.25;;;8.90;99.90;;;;;;5054257;28;20068;-62
2022/07/17 04:06:15;;;;;;;5.25;2.65;;;8.90;99.90;;;;;;5055418;28;20052;-62
2022/07/17 04:08:40;;;;;;;6.38;2.58;;;8.90;99.90;;;;;;5055868;28;20029;-62
2022/07/17 04:11:06;;;;;;;6.32;2.78;;;8.90;99.90;;;;;;5053634;28;20045;-62
2022/07/17 04:13:32;;;;;;;4.75;2.45;;;9.00;99.90;;;;;;5069649;28;20392;-62
2022/07/17 04:15:59;;;;;;;5.22;2.85;;;9.10;99.90;;;;;;5051255;28;20124;-62
2022/07/17 04:18:27;;;;;;;7.18;3.03;;;9.10;99.90;;;;;;5071468;28;20445;-61
2022/07/17 04:20:55;;;;;;;4.63;2.67;;;9.20;99.90;;;;;;5059270;28;20044;-62
2022/07/17 04:23:21;;;;;;;5.97;2.95;;;9.40;99.90;;;;;;5056624;28;20033;-62
2022/07/17 04:25:47;;;;;;;5.15;2.65;;;9.40;99.90;;;;;;5066700;28;20044;-62
2022/07/17 04:28:13;;;;;;;9.93;3.00;;;9.50;99.90;;;;;;5069775;28;20044;-61
2022/07/17 04:30:39;;;;;;;4.68;2.53;;;9.60;99.90;;;;;;5067184;28;21867;-61
2022/07/17 04:33:05;;;;;;;4.80;2.65;;;9.70;99.90;;;;;;5060173;28;20045;-62
2022/07/17 04:35:31;;;;;;;6.13;2.90;;;9.80;99.90;;;;;;5054433;28;20033;-62
2022/07/17 04:37:56;;;;;;;4.47;2.60;;;9.90;99.90;;;;;;5056684;28;20076;-62
2022/07/17 04:40:22;;;;;;;4.38;2.42;;;10.00;99.90;;;;;;5050024;28;20388;-62
2022/07/17 04:42:48;;;;;;;4.88;2.42;;;10.00;99.90;;;;;;5059965;28;20054;-62
2022/07/17 04:45:14;;;;;;;6.80;2.28;;;10.00;99.90;;;;;;5056403;28;20025;-62
2022/07/17 04:47:40;;;;;;;5.88;2.22;;;10.10;99.90;;;;;;5051598;28;20127;-62
2022/07/17 04:50:07;;;;;;;4.18;2.47;;;10.20;99.90;;;;;;5050688;28;20115;-62
2022/07/17 04:52:32;;;;;;;3.35;2.38;;;10.30;99.90;;;;;;5061547;28;20037;-62
2022/07/17 04:54:58;;;;;;;4.00;2.40;;;10.30;99.90;;;;;;5051100;28;20052;-62
2022/07/17 04:57:23;;;;;;;5.70;2.50;;;10.30;99.90;;;;;;5069864;28;20198;-62
2022/07/17 04:59:49;;;;;;;5.30;2.28;;;10.50;99.90;;;;;;5064398;28;20048;-62
2022/07/17 05:02:15;;;;;;;4.68;2.35;;;10.60;99.90;;;;;;5061854;28;20085;-63
2022/07/17 05:04:40;;;;;;;5.35;2.30;;;10.80;99.90;;;;;;5066256;28;20705;-62
2022/07/17 05:07:06;;;;;;;6.88;2.47;;;10.90;99.90;;;;;;5051477;28;20492;-62
2022/07/17 05:09:32;;;;;;;6.72;2.88;;;11.00;99.90;;;;;;5048870;28;20384;-62
2022/07/17 05:11:57;;;;;;;7.53;2.45;;;11.10;99.90;;;;;;5057274;28;20043;-62
2022/07/17 05:14:23;;;;;;;7.22;2.10;;;11.30;99.90;;;;;;5057144;28;20048;-62
2022/07/17 05:16:49;;;;;;;4.25;2.25;;;11.40;99.90;;;;;;5059757;28;20060;-62
2022/07/17 05:19:14;;;;;;;3.53;2.03;;;11.50;99.90;;;;;;5062826;28;20122;-61
2022/07/17 05:21:40;;;;;;;4.63;2.20;;;11.60;99.90;;;;;;5052372;28;20048;-61
2022/07/17 05:24:05;;;;;;;5.60;2.30;;;11.70;99.90;;;;;;5049848;28;20128;-62
2022/07/17 05:26:31;;;;;;;3.55;2.05;;;11.70;99.90;;;;;;5051359;28;20522;-62
2022/07/17 05:28:56;;;;;;;5.80;2.13;;;11.90;99.90;;;;;;5056810;28;20040;-61
2022/07/17 05:31:22;;;;;;;5.72;1.98;;;11.90;99.90;;;;;;5070894;28;20115;-61
2022/07/17 05:33:48;;;;;;;7.60;2.05;;;12.00;99.90;;;;;;5050700;28;20041;-62
2022/07/17 05:36:13;;;;;;;3.85;1.83;;;12.10;99.90;;;;;;5059164;28;20118;-61
2022/07/17 05:38:39;;;;;;;5.05;1.55;;;12.20;99.90;;;;;;5052479;28;20028;-62
2022/07/17 05:41:05;;;;;;;7.40;2.25;;;12.30;99.90;;;;;;5054202;28;20041;-62
2022/07/17 05:43:30;;;;;;;6.47;1.92;;;12.40;99.90;;;;;;5065937;28;20482;-62
2022/07/17 05:45:57;;;;;;;6.05;1.70;;;12.40;99.90;;;;;;5051551;28;20112;-61
2022/07/17 05:48:24;;;;;;;7.18;2.00;;;12.50;99.90;;;;;;5055147;28;20029;-62
2022/07/17 05:50:50;;;;;;;5.93;1.67;;;12.60;99.90;;;;;;5055655;28;20065;-62
2022/07/17 05:53:16;;;;;;;4.13;1.67;;;12.70;99.90;;;;;;5039570;28;20063;-62
2022/07/17 05:55:41;;;;;;;7.45;1.60;;;12.70;99.90;;;;;;5061844;28;20053;-61
2022/07/17 05:58:07;;;;;;;4.15;2.00;;;12.80;99.90;;;;;;5066474;28;20432;-62
2022/07/17 06:00:33;;;;;;;5.78;1.52;;;12.90;99.90;;;;;;5059001;28;20036;-62
2022/07/17 06:02:59;;;;;;;4.70;1.45;;;12.90;99.90;;;;;;5054264;28;20436;-62
2022/07/17 06:05:26;;;;;;;4.22;1.88;;;13.00;99.90;;;;;;5053555;28;20037;-62
2022/07/17 06:07:52;;;;;;;7.60;1.90;;;13.10;99.90;;;;;;5053365;28;20045;-62
2022/07/17 06:10:18;;;;;;;3.25;1.60;;;13.20;99.90;;;;;;5053055;28;20033;-62
2022/07/17 06:12:43;;;;;;;5.72;1.48;;;13.20;99.90;;;;;;5054865;28;20040;-62
2022/07/17 06:15:09;;;;;;;3.80;1.50;;;13.20;99.90;;;;;;5054164;28;20044;-62
2022/07/17 06:17:35;;;;;;;3.88;1.25;;;13.30;99.90;;;;;;5054720;28;20039;-62
2022/07/17 06:20:00;;;;;;;4.40;1.60;;;13.50;99.90;;;;;;5062956;28;20048;-62
2022/07/17 06:22:26;;;;;;;5.97;1.63;;;13.90;99.90;;;;;;5059438;28;20052;-63
2022/07/17 06:24:52;;;;;;;3.95;1.52;;;14.30;99.90;;;;;;5069563;28;20037;-62
2022/07/17 06:27:17;;;;;;;5.50;1.52;;;14.60;99.90;;;;;;5055269;28;20055;-63
2022/07/17 06:29:43;;;;;;;3.08;1.42;;;14.90;99.90;;;;;;5058744;28;20033;-63
2022/07/17 06:32:09;;;;;;;4.78;1.30;;;15.20;99.90;;;;;;5071194;28;20129;-63
2022/07/17 06:34:34;;;;;;;3.17;1.02;;;15.50;99.90;;;;;;5040381;28;20488;-63
2022/07/17 06:37:00;;;;;;;4.03;1.17;;;15.70;99.60;;;;;;5067642;28;20040;-65
2022/07/17 06:39:25;;;;;;;4.95;1.25;;;16.00;98.90;;;;;;5060485;28;20040;-63
2022/07/17 06:41:51;;;;;;;3.40;1.10;;;16.30;98.20;;;;;;5069002;28;20101;-63
2022/07/17 06:44:17;;;;;;;4.78;1.42;;;16.50;97.30;;;;;;5056968;28;20044;-63
2022/07/17 06:46:42;;;;;;;4.82;1.02;;;16.70;96.10;;;;;;5073229;28;20028;-64
2022/07/17 06:49:08;;;;;;;6.93;1.00;;;16.90;95.60;;;;;;5060378;28;20078;-64
2022/07/17 06:51:33;;;;;;;3.33;0.90;;;17.10;95.00;;;;;;5053312;28;20090;-64
2022/07/17 06:53:59;;;;;;;5.40;1.35;;;17.40;94.40;;;;;;5054492;28;20059;-64
2022/07/17 06:56:24;;;;;;;5.03;1.10;;;17.70;92.80;;;;;;5054283;28;20048;-63
2022/07/17 06:58:50;;;;;;;3.55;1.20;;;17.90;92.00;;;;;;5065673;28;20046;-64
2022/07/17 07:01:15;;;;;;;1.85;0.70;;;18.10;90.80;;;;;;5035877;28;20094;-64
2022/07/17 07:03:41;;;;;;;3.22;0.90;;;18.30;89.30;;;;;;5059181;28;20040;-64
2022/07/17 07:06:07;;;;;;;5.53;1.20;;;18.40;87.70;;;;;;5050315;28;20050;-64
2022/07/17 07:08:34;;;;;;;3.65;1.25;;;18.50;85.60;;;;;;5052651;28;20037;-63
2022/07/17 07:11:01;;;;;;;3.72;1.13;;;18.50;82.80;;;;;;5059824;28;20122;-64
2022/07/17 07:13:26;;;;;;;4.50;0.95;;;18.70;81.90;;;;;;5060168;28;20124;-63
2022/07/17 07:15:52;;;;;;;5.90;1.50;;;18.70;80.20;;;;;;5062693;28;20120;-64
2022/07/17 07:18:18;;;;;;;5.00;1.08;;;18.50;78.90;;;;;;5067862;28;20494;-64
2022/07/17 07:20:43;;;;;;;6.95;1.20;;;18.40;78.10;;;;;;5072414;28;20044;-64
2022/07/17 07:23:09;;;;;;;5.03;1.30;;;18.40;77.60;;;;;;5059044;28;20055;-64
2022/07/17 07:25:35;;;;;;;3.85;1.05;;;18.30;77.40;;;;;;5050308;28;20560;-64
2022/07/17 07:28:02;;;;;;;11.73;1.52;;;18.30;77.10;;;;;;5060213;28;20028;-64
2022/07/17 07:30:27;;;;;;;5.82;1.65;;;18.30;77.30;;;;;;5064309;28;20051;-63
2022/07/17 07:32:53;;;;;;;3.53;1.30;;;18.20;77.20;;;;;;5060243;28;20037;-63
2022/07/17 07:35:19;;;;;;;9.07;1.27;;;18.20;77.10;;;;;;5055152;28;20060;-62
2022/07/17 07:37:44;;;;;;;6.07;1.10;;;18.20;77.10;;;;;;5053399;28;20041;-62
2022/07/17 07:40:10;;;;;;;7.35;1.20;;;18.30;76.80;;;;;;5051207;28;20453;-63
2022/07/17 07:42:36;;;;;;;3.47;0.98;;;18.40;76.30;;;;;;5055620;28;20049;-63
2022/07/17 07:45:02;;;;;;;5.35;1.20;;;18.40;75.70;;;;;;5053451;28;20086;-63
2022/07/17 07:47:28;;;;;;;6.80;1.60;;;18.50;75.30;;;;;;5054312;28;20041;-63
2022/07/17 07:49:53;;;;;;;6.00;1.27;;;18.50;75.00;;;;;;5052501;28;20733;-63
2022/07/17 07:52:19;;;;;;;5.63;1.00;;;18.70;75.20;;;;;;5055711;28;20162;-63
2022/07/17 07:54:44;;;;;;;6.78;1.38;;;18.70;75.30;;;;;;5064022;28;20031;-64
2022/07/17 07:57:10;;;;;;;3.25;1.02;;;18.80;75.50;;;;;;5066941;28;20055;-64
2022/07/17 07:59:36;;;;;;;3.53;1.10;;;18.90;75.10;;;;;;5073402;28;20040;-63
2022/07/17 08:02:02;;;;;;;3.35;1.00;;;19.10;74.90;;;;;;5057659;28;20037;-63
2022/07/17 08:04:28;;;;;;;2.55;1.02;;;19.20;74.30;;;;;;5059301;28;20043;-64
2022/07/17 08:06:53;;;;;;;3.38;1.00;;;19.20;74.20;;;;;;5057258;28;20036;-64
2022/07/17 08:09:19;;;;;;;4.25;1.10;;;19.30;73.70;;;;;;5069285;28;20044;-63
2022/07/17 08:11:45;;;;;;;6.40;1.20;;;19.50;73.60;;;;;;5067803;28;20116;-63
2022/07/17 08:14:10;;;;;;;3.80;0.85;;;19.60;73.00;;;;;;5053034;28;20037;-64
2022/07/17 08:16:36;;;;;;;4.60;1.10;;;19.80;71.80;;;;;;5060373;28;20051;-65
2022/07/17 08:19:02;;;;;;;8.57;1.70;;;20.00;71.40;;;;;;5070376;28;20037;-63
2022/07/17 08:21:28;;;;;;;3.83;1.20;;;20.00;70.90;;;;;;5051354;28;20500;-64
2022/07/17 08:23:53;;;;;;;7.07;1.30;;;20.00;69.90;;;;;;5049346;28;20045;-64
2022/07/17 08:26:19;;;;;;;3.92;1.10;;;20.10;69.10;;;;;;5059430;28;20055;-64
2022/07/17 08:28:45;;;;;;;3.72;1.55;;;20.40;68.70;;;;;;5072992;28;20033;-64
2022/07/17 08:31:10;;;;;;;5.05;1.10;;;20.50;68.30;;;;;;5062799;28;20033;-64
2022/07/17 08:33:36;;;;;;;6.47;1.13;;;20.60;68.30;;;;;;5053205;28;20324;-64
2022/07/17 08:36:02;;;;;;;4.63;1.00;;;20.90;68.30;;;;;;5054883;28;20069;-64
2022/07/17 08:38:27;;;;;;;2.22;1.00;;;21.30;67.60;;;;;;5055229;28;20052;-64
2022/07/17 08:40:54;;;;;;;3.50;1.25;;;21.40;67.10;;;;;;5049104;28;20128;-64
2022/07/17 08:43:20;;;;;;;5.88;1.42;;;21.40;65.20;;;;;;5063077;28;20036;-64
2022/07/17 08:45:47;;;;;;;4.07;1.40;;;21.40;66.00;;;;;;5066538;28;20037;-65
2022/07/17 08:48:16;;;;;;;4.75;1.38;;;21.90;65.60;;;;;;5062665;28;20036;-64
2022/07/17 08:50:42;;;;;;;4.72;1.20;;;22.60;63.90;;;;;;5052001;28;20036;-64
2022/07/17 08:53:08;;;;;;;2.97;0.80;;;23.30;61.80;;;;;;5070628;28;20127;-66
2022/07/17 08:55:34;;;;;;;3.00;0.82;;;23.80;60.20;;;;;;5069203;28;20057;-64
2022/07/17 08:58:00;;;;;;;2.85;0.98;;;24.10;59.10;;;;;;5054463;28;20170;-66
2022/07/17 09:00:27;;;;;;;5.57;1.02;;;24.50;58.30;;;;;;5067307;28;20124;-66
2022/07/17 09:02:59;;;;;;;3.67;0.95;;;25.00;57.10;;;;;;5056294;28;20049;-66
2022/07/17 09:05:29;;;;;;;2.28;1.10;;;25.40;55.00;;;;;;5050611;28;20056;-65
2022/07/17 09:07:55;;;;;;;4.40;0.82;;;25.70;53.40;;;;;;5052840;28;20702;-64
2022/07/17 09:10:42;;;;;;;2.88;0.88;;;26.40;51.00;;;;;;5069689;28;20087;-66
2022/07/17 09:13:29;;;;;;;2.33;0.73;;;26.40;48.80;;;;;;5057208;28;20072;-63
2022/07/17 09:16:08;;;;;;;2.97;0.90;;;26.60;48.90;;;;;;5060561;28;20489;-64
2022/07/17 09:18:53;;;;;;;4.25;1.17;;;26.60;49.20;;;;;;5062228;28;20044;-63
2022/07/17 09:21:29;;;;;;;2.15;0.80;;;26.90;46.80;;;;;;5052255;28;20125;-65
2022/07/17 09:24:12;;;;;;;2.15;0.80;;;27.10;46.40;;;;;;5063383;28;20659;-65
2022/07/17 09:26:44;;;;;;;2.05;0.75;;;27.50;45.60;;;;;;5067659;28;20039;-66
2022/07/17 09:29:11;;;;;;;2.42;1.00;;;28.00;45.50;;;;;;5068017;28;20427;-66
2022/07/17 09:31:37;;;;;;;1.75;0.70;;;28.10;44.60;;;;;;5051839;28;20041;-66
2022/07/17 09:34:03;;;;;;;2.47;0.73;;;28.30;44.20;;;;;;5053861;28;20144;-65
2022/07/17 09:36:29;;;;;;;3.00;1.00;;;28.40;42.80;;;;;;5054673;28;20043;-65
2022/07/17 09:38:56;;;;;;;1.52;0.90;;;28.30;42.60;;;;;;5056647;28;20108;-65
2022/07/17 09:41:24;;;;;;;3.70;1.00;;;28.70;42.30;;;;;;5050914;28;20564;-65
2022/07/17 09:43:57;;;;;;;1.85;1.00;;;28.20;42.00;;;;;;5057682;28;20066;-66
2022/07/17 09:46:34;;;;;;;2.03;1.10;;;28.50;42.00;;;;;;5061735;28;20044;-66
2022/07/17 09:49:07;;;;;;;2.88;1.00;;;29.30;41.10;;;;;;5056442;28;20041;-66
2022/07/17 09:51:38;;;;;;;4.00;0.95;;;29.60;41.10;;;;;;5063795;28;20581;-66
2022/07/17 09:54:05;;;;;;;3.40;0.82;;;30.70;39.80;;;;;;5060069;28;20596;-66
2022/07/17 09:56:34;;;;;;;3.83;1.23;;;30.90;39.50;;;;;;5063595;28;20435;-65
2022/07/17 09:59:01;;;;;;;3.00;0.90;;;30.60;38.90;;;;;;5051453;28;20123;-66
2022/07/17 10:01:27;;;;;;;3.03;1.20;;;30.50;39.70;;;;;;5051522;28;20485;-65
2022/07/17 10:03:53;;;;;;;3.25;0.80;;;30.80;38.30;;;;;;5056797;28;20049;-66
2022/07/17 10:06:20;;;;;;;3.08;1.20;;;31.00;38.10;;;;;;5060788;28;20463;-66
2022/07/17 10:08:47;;;;;;;2.53;1.17;;;31.20;37.10;;;;;;5065585;28;20037;-66
2022/07/17 10:11:15;;;;;;;1.83;0.98;;;31.90;36.10;;;;;;5068751;28;20029;-67
2022/07/17 10:13:43;;;;;;;3.00;1.63;;;32.40;35.70;;;;;;5052570;28;20435;-66
2022/07/17 10:16:11;;;;;;;2.45;1.10;;;32.50;35.70;;;;;;5051141;28;20144;-66
2022/07/17 10:18:44;;;;;;;2.30;0.95;;;32.60;35.80;;;;;;5059787;28;20041;-66
2022/07/17 10:21:21;;;;;;;5.32;1.08;;;33.20;34.80;;;;;;5063470;28;20036;-66
2022/07/17 10:24:06;;;;;;;2.22;0.82;;;32.90;32.50;;;;;;5053939;28;20131;-67
2022/07/17 10:26:39;;;;;;;3.13;1.00;;;33.50;33.40;;;;;;5051840;28;20515;-67
2022/07/17 10:29:27;;;;;;;7.00;1.20;;;33.60;33.00;;;;;;5055486;28;20080;-67
2022/07/17 10:31:53;;;;;;;4.53;1.33;;;33.30;34.00;;;;;;5075105;28;20048;-68
2022/07/17 10:34:36;;;;;;;2.58;1.35;;;33.90;33.30;;;;;;5053611;28;20047;-68
2022/07/17 10:37:02;;;;;;;2.25;0.95;;;34.50;32.50;;;;;;5049930;28;20037;-67
2022/07/17 10:39:27;;;;;;;2.00;1.10;;;34.30;32.60;;;;;;5073462;28;20417;-67
2022/07/17 10:42:00;;;;;;;2.22;0.95;;;34.80;32.50;;;;;;5095027;28;20052;-67
2022/07/17 10:44:30;;;;;;;2.45;1.02;;;34.90;31.40;;;;;;5085084;28;20036;-67
2022/07/17 10:46:56;;;;;;;4.53;1.23;;;34.50;30.60;;;;;;5064653;28;20037;-64
2022/07/17 10:49:25;;;;;;;3.40;1.13;;;33.80;31.20;;;;;;5072389;28;20036;-63
2022/07/17 10:51:51;;;;;;;2.75;1.25;;;33.20;31.50;;;;;;5071364;28;20086;-64
2022/07/17 10:54:31;;;;;;;2.15;1.00;;;32.10;32.60;;;;;;5068635;28;20060;-65
2022/07/17 10:57:00;;;;;;;2.30;0.80;;;31.10;34.50;;;;;;5074318;28;20067;-65
2022/07/17 10:59:25;;;;;;;1.58;0.80;;;30.30;35.90;;;;;;5055841;28;20052;-65
2022/07/17 11:01:56;;;;;;;3.22;1.10;;;29.10;37.20;;;;;;5054638;28;20036;-65
2022/07/17 11:04:22;;;;;;;3.55;1.10;;;28.50;38.50;;;;;;5061171;28;20032;-63
2022/07/17 11:06:47;;;;;;;3.80;1.05;;;28.50;38.40;;;;;;5064431;28;20024;-64
2022/07/17 11:09:13;;;;;;;3.78;1.10;;;27.90;39.10;;;;;;5065396;28;20048;-63
2022/07/17 11:12:05;;;;;;;3.65;1.25;;;27.60;39.90;;;;;;5068449;28;20044;-66
2022/07/17 11:14:33;;;;;;;2.45;1.05;;;27.10;40.30;;;;;;5061235;28;20358;-66
2022/07/17 11:17:00;;;;;;;3.05;1.05;;;26.90;41.80;;;;;;5070481;28;20037;-65
2022/07/17 11:19:32;;;;;;;2.75;1.35;;;26.60;42.60;;;;;;5065053;28;20082;-65
2022/07/17 11:22:02;;;;;;;4.53;1.20;;;26.30;42.70;;;;;;5073338;28;20120;-64
2022/07/17 11:24:45;;;;;;;2.50;0.90;;;26.20;43.20;;;;;;5068166;28;20483;-67
2022/07/17 11:27:22;;;;;;;1.67;1.00;;;26.00;43.80;;;;;;5074428;28;20032;-68
2022/07/17 11:29:48;;;;;;;2.88;1.20;;;26.00;43.90;;;;;;5067134;28;20503;-64
2022/07/17 11:32:14;;;;;;;2.28;1.02;;;25.90;43.30;;;;;;5073940;28;20032;-69
2022/07/17 11:34:40;;;;;;;2.72;1.13;;;25.70;43.20;;;;;;5062074;28;20056;-67
2022/07/17 11:37:08;;;;;;;1.88;0.90;;;25.50;44.00;;;;;;5063992;28;20534;-69
2022/07/17 11:39:49;;;;;;;4.15;1.38;;;25.40;44.40;;;;;;5055380;28;20123;-66
2022/07/17 11:42:22;;;;;;;1.67;0.80;;;25.40;45.20;;;;;;5061861;28;20465;-69
2022/07/17 11:44:53;;;;;;;1.63;0.85;;;25.50;45.40;;;;;;5050708;28;20055;-66
2022/07/17 11:47:26;;;;;;;3.15;1.30;;;25.40;44.50;;;;;;5068442;28;20041;-65
2022/07/17 11:50:04;;;;;;;5.72;1.23;;;25.40;44.50;;;;;;5050897;28;20852;-65
2022/07/17 11:52:43;;;;;;;2.63;1.20;;;25.30;45.00;;;;;;5052259;28;20036;-66
2022/07/17 11:55:09;;;;;;;2.42;1.30;;;25.30;45.10;;;;;;5060169;28;20055;-67
2022/07/17 11:57:46;;;;;;;4.43;1.50;;;25.20;45.30;;;;;;5071683;28;20040;-64
2022/07/17 12:00:17;;;;;;;3.03;1.45;;;25.30;45.80;;;;;;5060547;28;20097;-62
2022/07/17 12:02:43;;;;;;;3.47;1.38;;;25.00;45.90;;;;;;5061224;28;20041;-64
2022/07/17 12:05:10;;;;;;;2.53;1.30;;;25.00;45.50;;;;;;5061074;28;20170;-65
2022/07/17 12:07:46;;;;;;;3.45;1.00;;;24.80;45.60;;;;;;5052625;28;20032;-65
2022/07/17 12:10:18;;;;;;;2.53;1.10;;;24.90;45.70;;;;;;5069671;28;20045;-64
2022/07/17 12:13:04;;;;;;;2.60;1.58;;;24.80;46.10;;;;;;5057581;28;20048;-66
2022/07/17 12:15:43;;;;;;;3.20;1.17;;;25.00;46.70;;;;;;5063766;28;20624;-65
2022/07/17 12:18:29;;;;;;;3.17;1.35;;;25.60;46.70;;;;;;5054859;28;20041;-64
2022/07/17 12:20:58;;;;;;;3.88;1.45;;;26.60;44.70;;;;;;5070697;28;20089;-64
2022/07/17 12:23:36;;;;;;;2.85;1.40;;;26.70;43.50;;;;;;5064441;28;20033;-65
2022/07/17 12:26:06;;;;;;;3.05;1.27;;;26.80;43.10;;;;;;5051994;28;20037;-70
2022/07/17 12:28:32;;;;;;;1.65;1.20;;;26.40;43.60;;;;;;5057304;28;20051;-65
2022/07/17 12:30:58;;;;;;;2.42;1.20;;;27.20;43.00;;;;;;5053781;28;20037;-67
2022/07/17 12:33:23;;;;;;;3.85;1.20;;;28.60;41.70;;;;;;5051067;28;20068;-66
2022/07/17 12:35:49;;;;;;;3.15;1.30;;;29.80;39.70;;;;;;5068426;28;20047;-67
2022/07/17 12:38:14;;;;;;;2.22;1.13;;;31.40;37.90;;;;;;5047826;28;20040;-67
2022/07/17 12:40:41;;;;;;;2.95;1.20;;;32.60;36.20;;;;;;5067300;28;20450;-66
2022/07/17 12:43:07;;;;;;;3.28;1.15;;;33.80;35.00;;;;;;5065785;28;20497;-64
2022/07/17 12:45:33;;;;;;;3.60;1.13;;;34.50;33.70;;;;;;5056544;28;20048;-65
2022/07/17 12:47:58;;;;;;;4.93;1.48;;;34.80;32.90;;;;;;5055700;28;20037;-64
2022/07/17 12:50:24;;;;;;;3.22;1.50;;;35.20;32.40;;;;;;5056959;28;20036;-67